createdAt,value
2023-01-07T00:01:46.336Z,6.11
2023-01-07T00:04:18.115Z,6.11
2023-01-07T00:06:52.678Z,5.23
2023-01-07T00:09:21.225Z,5.90
2023-01-07T00:11:49.926Z,5.95
2023-01-07T00:14:18.614Z,4.58
2023-01-07T00:16:47.507Z,5.88
2023-01-07T00:19:17.900Z,5.23
2023-01-07T00:21:47.801Z,5.81
2023-01-07T00:24:18.990Z,5.76
2023-01-07T00:26:49.472Z,5.10
2023-01-07T00:29:18.741Z,5.75
2023-01-07T00:31:48.054Z,4.96
2023-01-07T00:34:17.851Z,5.67
2023-01-07T00:37:08.631Z,3.70
2023-01-07T00:39:43.182Z,3.94
2023-01-07T00:42:30.763Z,5.61
2023-01-07T00:45:00.191Z,5.58
2023-01-07T00:47:29.139Z,5.44
2023-01-07T00:49:57.536Z,5.46
2023-01-07T00:52:26.034Z,5.51
2023-01-07T00:55:01.045Z,4.94
2023-01-07T00:57:29.943Z,5.57
2023-01-07T01:00:01.250Z,5.70
2023-01-07T01:02:31.973Z,4.27
2023-01-07T01:05:00.929Z,5.89
2023-01-07T01:07:32.954Z,5.90
2023-01-07T01:10:07.605Z,4.70
2023-01-07T01:12:38.185Z,5.83
2023-01-07T01:15:11.803Z,5.71
2023-01-07T01:17:41.263Z,4.99
2023-01-07T01:20:15.730Z,5.74
2023-01-07T01:22:46.855Z,5.77
2023-01-07T01:25:27.855Z,5.61
2023-01-07T01:27:56.793Z,5.74
2023-01-07T01:30:25.655Z,5.66
2023-01-07T01:33:01.777Z,5.59
2023-01-07T01:35:31.482Z,5.57
2023-01-07T01:38:02.342Z,5.55
2023-01-07T01:40:35.647Z,5.58
2023-01-07T01:43:06.057Z,5.54
2023-01-07T01:45:35.463Z,5.44
2023-01-07T01:48:11.070Z,5.20
2023-01-07T01:50:45.140Z,5.61
2023-01-07T01:53:20.838Z,4.69
2023-01-07T01:56:01.546Z,4.48
2023-01-07T01:58:51.058Z,5.31
2023-01-07T02:01:21.767Z,4.53
2023-01-07T02:03:53.189Z,5.19
2023-01-07T02:06:27.408Z,5.14
2023-01-07T02:08:56.983Z,5.12
2023-01-07T02:11:42.350Z,5.10
2023-01-07T02:14:36.001Z,5.11
2023-01-07T02:17:26.020Z,5.15
2023-01-07T02:20:26.833Z,5.19
2023-01-07T02:23:57.432Z,5.19
2023-01-07T02:27:16.457Z,5.34
2023-01-07T02:30:31.608Z,5.39
2023-01-07T02:33:29.119Z,5.44
2023-01-07T02:36:38.492Z,5.52
2023-01-07T02:39:31.547Z,5.67
2023-01-07T02:42:09.017Z,5.79
2023-01-07T02:44:47.185Z,5.60
2023-01-07T02:47:24.668Z,5.80
2023-01-07T02:49:55.929Z,5.99
2023-01-07T02:52:28.889Z,6.06
2023-01-07T02:55:06.825Z,5.50
2023-01-07T02:58:29.626Z,6.07
2023-01-07T03:01:51.037Z,5.90
2023-01-07T03:05:08.647Z,5.90
2023-01-07T03:08:04.101Z,5.90
2023-01-07T03:10:41.898Z,6.01
2023-01-07T03:13:17.700Z,6.07
2023-01-07T03:15:57.179Z,6.04
2023-01-07T03:18:31.489Z,6.09
2023-01-07T03:21:10.787Z,6.18
2023-01-07T03:23:45.665Z,6.49
2023-01-07T03:26:21.881Z,6.28
2023-01-07T03:28:55.321Z,6.67
2023-01-07T03:31:25.012Z,6.22
2023-01-07T03:34:00.872Z,6.84
2023-01-07T03:36:39.182Z,6.92
2023-01-07T03:39:11.328Z,7.01
2023-01-07T03:41:58.516Z,7.09
2023-01-07T03:44:28.584Z,6.90
2023-01-07T03:46:58.487Z,7.18
2023-01-07T03:49:27.118Z,7.23
2023-01-07T03:51:57.504Z,7.15
2023-01-07T03:54:27.772Z,7.27
2023-01-07T03:56:58.861Z,6.75
2023-01-07T03:59:27.333Z,7.14
2023-01-07T04:01:55.847Z,7.03
2023-01-07T04:04:25.081Z,6.86
2023-01-07T04:06:55.335Z,6.65
2023-01-07T04:09:26.369Z,6.47
2023-01-07T04:11:54.855Z,6.36
2023-01-07T04:14:23.431Z,6.33
2023-01-07T04:16:52.256Z,6.25
2023-01-07T04:19:21.373Z,6.28
2023-01-07T04:21:49.847Z,6.02
2023-01-07T04:24:18.228Z,5.90
2023-01-07T04:26:48.745Z,6.20
2023-01-07T04:29:19.467Z,6.49
2023-01-07T04:31:50.337Z,5.60
2023-01-07T04:34:19.038Z,6.76
2023-01-07T04:36:53.813Z,6.88
2023-01-07T04:39:22.329Z,5.67
2023-01-07T04:41:52.133Z,6.55
2023-01-07T04:44:20.878Z,7.05
2023-01-07T04:46:49.336Z,7.01
2023-01-07T04:49:20.382Z,6.88
2023-01-07T04:51:49.243Z,6.70
2023-01-07T04:54:18.309Z,6.55
2023-01-07T04:56:46.773Z,6.43
2023-01-07T04:59:17.588Z,5.58
2023-01-07T05:01:46.208Z,6.35
2023-01-07T05:04:14.728Z,6.34
2023-01-07T05:06:44.054Z,6.39
2023-01-07T05:09:13.108Z,6.32
2023-01-07T05:11:41.526Z,6.55
2023-01-07T05:14:12.828Z,6.55
2023-01-07T05:16:43.381Z,6.58
2023-01-07T05:19:14.118Z,6.49
2023-01-07T05:21:48.350Z,6.69
2023-01-07T05:24:18.152Z,5.39
2023-01-07T05:26:49.828Z,6.38
2023-01-07T05:29:20.567Z,6.61
2023-01-07T05:31:51.640Z,6.56
2023-01-07T05:34:20.231Z,6.66
2023-01-07T05:36:48.689Z,6.77
2023-01-07T05:39:17.169Z,6.81
2023-01-07T05:41:46.595Z,6.82
2023-01-07T05:44:15.254Z,6.81
2023-01-07T05:46:43.833Z,6.81
2023-01-07T05:49:13.758Z,6.67
2023-01-07T05:51:42.223Z,6.65
2023-01-07T05:54:11.336Z,6.76
2023-01-07T05:56:39.908Z,6.69
2023-01-07T05:59:08.351Z,6.67
2023-01-07T06:01:36.804Z,6.21
2023-01-07T06:04:05.370Z,6.76
2023-01-07T06:06:39.727Z,6.87
2023-01-07T06:09:08.174Z,6.94
2023-01-07T06:11:36.631Z,7.01
2023-01-07T06:14:05.090Z,6.50
2023-01-07T06:16:33.574Z,6.99
2023-01-07T06:19:09.773Z,6.78
2023-01-07T06:21:40.083Z,6.92
2023-01-07T06:24:09.936Z,6.93
2023-01-07T06:26:40.132Z,6.96
2023-01-07T06:29:10.481Z,7.00
2023-01-07T06:31:40.800Z,7.07
2023-01-07T06:34:09.467Z,7.16
2023-01-07T06:36:39.313Z,7.29
2023-01-07T06:39:12.385Z,7.40
2023-01-07T06:41:43.637Z,7.37
2023-01-07T06:44:12.417Z,7.55
2023-01-07T06:46:44.040Z,7.63
2023-01-07T06:49:12.982Z,7.68
2023-01-07T06:51:42.746Z,7.71
2023-01-07T06:54:12.153Z,7.72
2023-01-07T06:56:40.507Z,7.76
2023-01-07T06:59:08.971Z,7.80
2023-01-07T07:01:37.536Z,7.79
2023-01-07T07:04:06.206Z,7.80
2023-01-07T07:06:34.909Z,7.83
2023-01-07T07:09:04.960Z,7.79
2023-01-07T07:11:33.408Z,7.94
2023-01-07T07:14:03.892Z,7.99
2023-01-07T07:16:32.849Z,7.91
2023-01-07T07:19:01.391Z,8.11
2023-01-07T07:21:29.753Z,7.99
2023-01-07T07:23:58.179Z,8.21
2023-01-07T07:26:28.341Z,8.00
2023-01-07T07:28:56.766Z,8.31
2023-01-07T07:31:25.233Z,8.38
2023-01-07T07:33:53.664Z,8.38
2023-01-07T07:36:22.499Z,8.46
2023-01-07T07:38:51.878Z,8.10
2023-01-07T07:41:20.293Z,8.00
2023-01-07T07:43:50.224Z,8.37
2023-01-07T07:46:19.917Z,8.04
2023-01-07T07:48:50.306Z,8.61
2023-01-07T07:51:20.349Z,8.08
2023-01-07T07:53:48.730Z,8.66
2023-01-07T07:56:17.099Z,8.76
2023-01-07T07:58:45.809Z,8.80
2023-01-07T08:01:15.889Z,8.85
2023-01-07T08:03:44.435Z,8.95
2023-01-07T08:06:16.609Z,8.60
2023-01-07T08:08:45.007Z,8.98
2023-01-07T08:11:13.421Z,8.95
2023-01-07T08:13:41.887Z,8.98
2023-01-07T08:16:10.431Z,9.01
2023-01-07T08:18:41.110Z,9.05
2023-01-07T08:21:09.524Z,9.08
2023-01-07T08:23:38.379Z,9.08
2023-01-07T08:26:07.506Z,8.56
2023-01-07T08:28:36.625Z,8.78
2023-01-07T08:31:07.238Z,8.99
2023-01-07T08:33:39.838Z,8.80
2023-01-07T08:36:22.107Z,8.78
2023-01-07T08:38:53.457Z,8.78
2023-01-07T08:41:24.308Z,9.23
2023-01-07T08:43:55.192Z,9.28
2023-01-07T08:46:24.334Z,9.32
2023-01-07T08:48:54.081Z,9.35
2023-01-07T08:51:22.518Z,9.36
2023-01-07T08:53:51.171Z,9.40
2023-01-07T08:56:27.409Z,8.86
2023-01-07T08:58:55.875Z,9.37
2023-01-07T09:01:24.367Z,9.31
2023-01-07T09:03:56.471Z,9.33
2023-01-07T09:06:25.161Z,9.57
2023-01-07T09:08:54.612Z,9.92
2023-01-07T09:11:23.147Z,10.25
2023-01-07T09:13:51.471Z,10.37
2023-01-07T09:16:21.492Z,10.45
2023-01-07T09:18:50.999Z,10.46
2023-01-07T09:21:20.732Z,10.55
2023-01-07T09:23:49.134Z,10.78
2023-01-07T09:26:17.812Z,10.87
2023-01-07T09:28:46.206Z,10.85
2023-01-07T09:31:14.536Z,10.84
2023-01-07T09:33:42.921Z,10.88
2023-01-07T09:36:11.295Z,11.06
2023-01-07T09:38:41.061Z,11.00
2023-01-07T09:41:29.660Z,10.84
2023-01-07T09:44:15.658Z,10.85
2023-01-07T09:46:49.038Z,10.75
2023-01-07T09:49:22.228Z,10.73
2023-01-07T09:51:55.799Z,10.93
2023-01-07T09:54:35.546Z,10.95
2023-01-07T09:57:04.685Z,11.06
2023-01-07T09:59:34.745Z,11.15
2023-01-07T10:02:31.755Z,11.30
2023-01-07T10:05:14.156Z,11.33
2023-01-07T10:08:28.686Z,11.43
2023-01-07T10:10:54.374Z,11.32
2023-01-07T10:13:55.117Z,11.43
2023-01-07T10:16:36.150Z,11.44
2023-01-07T10:19:20.579Z,11.34
2023-01-07T10:21:56.321Z,11.28
2023-01-07T10:24:30.088Z,11.14
2023-01-07T10:27:08.215Z,11.03
2023-01-07T10:29:44.007Z,10.95
2023-01-07T10:32:21.847Z,10.95
2023-01-07T10:34:54.609Z,10.95
2023-01-07T10:37:31.624Z,10.95
2023-01-07T10:40:21.610Z,11.01
2023-01-07T10:43:00.435Z,11.12
2023-01-07T10:46:11.085Z,11.24
2023-01-07T10:49:17.169Z,11.37
2023-01-07T10:52:19.019Z,11.45
2023-01-07T10:55:17.548Z,11.59
2023-01-07T10:57:48.961Z,11.66
2023-01-07T11:00:19.831Z,11.71
2023-01-07T11:02:53.753Z,11.62
2023-01-07T11:05:25.149Z,11.62
2023-01-07T11:08:00.650Z,11.66
2023-01-07T11:10:34.534Z,11.64
2023-01-07T11:13:13.768Z,11.66
2023-01-07T11:15:49.831Z,11.47
2023-01-07T11:18:22.999Z,11.62
2023-01-07T11:20:53.833Z,11.64
2023-01-07T11:23:35.312Z,11.66
2023-01-07T11:26:18.082Z,11.76
2023-01-07T11:28:55.063Z,11.77
2023-01-07T11:31:51.019Z,11.71
2023-01-07T11:34:26.608Z,11.62
2023-01-07T11:36:56.081Z,11.57
2023-01-07T11:39:29.399Z,11.41
2023-01-07T11:42:23.612Z,11.34
2023-01-07T11:45:12.164Z,11.32
2023-01-07T11:47:49.952Z,11.21
2023-01-07T11:50:35.473Z,11.13
2023-01-07T11:53:25.798Z,10.98
2023-01-07T11:56:01.235Z,10.83
2023-01-07T11:58:33.591Z,10.71
2023-01-07T12:01:15.827Z,10.58
2023-01-07T12:04:10.376Z,10.47
2023-01-07T12:06:42.878Z,9.77
2023-01-07T12:09:25.966Z,10.27
2023-01-07T12:11:58.777Z,10.24
2023-01-07T12:14:32.553Z,9.80
2023-01-07T12:17:16.431Z,10.11
2023-01-07T12:20:30.630Z,10.06
2023-01-07T12:23:22.731Z,10.08
2023-01-07T12:26:05.531Z,10.19
2023-01-07T12:28:54.397Z,10.45
2023-01-07T12:31:39.171Z,10.88
2023-01-07T12:34:19.384Z,11.17
2023-01-07T12:37:00.739Z,11.39
2023-01-07T12:39:36.611Z,11.59
2023-01-07T12:42:14.288Z,11.74
2023-01-07T12:44:48.713Z,11.44
2023-01-07T12:47:30.587Z,12.10
2023-01-07T12:50:10.755Z,12.27
2023-01-07T12:52:48.219Z,12.34
2023-01-07T12:55:22.707Z,12.30
2023-01-07T12:58:09.000Z,12.28
2023-01-07T13:00:47.844Z,12.01
2023-01-07T13:03:35.969Z,11.99
2023-01-07T13:06:17.770Z,11.77
2023-01-07T13:08:55.751Z,11.57
2023-01-07T13:11:46.205Z,11.51
2023-01-07T13:14:24.359Z,11.39
2023-01-07T13:16:52.860Z,11.19
2023-01-07T13:19:21.217Z,11.20
2023-01-07T13:21:51.546Z,11.21
2023-01-07T13:24:56.572Z,11.24
2023-01-07T13:27:35.032Z,11.30
2023-01-07T13:30:20.354Z,11.40
2023-01-07T13:33:06.037Z,11.32
2023-01-07T13:36:05.926Z,11.57
2023-01-07T13:39:28.927Z,11.57
2023-01-07T13:42:15.289Z,11.64
2023-01-07T13:45:11.836Z,11.64
2023-01-07T13:47:49.359Z,11.68
2023-01-07T13:50:36.495Z,11.58
2023-01-07T13:53:08.152Z,11.54
2023-01-07T13:55:42.657Z,11.50
2023-01-07T13:58:45.897Z,11.51
2023-01-07T14:01:16.263Z,11.57
2023-01-07T14:03:50.473Z,11.64
2023-01-07T14:06:41.758Z,11.68
2023-01-07T14:09:33.064Z,11.46
2023-01-07T14:12:46.459Z,11.71
2023-01-07T14:16:07.994Z,11.68
2023-01-07T14:19:07.791Z,11.61
2023-01-07T14:21:53.468Z,11.52
2023-01-07T14:24:51.898Z,11.44
2023-01-07T14:27:46.051Z,11.38
2023-01-07T14:30:23.155Z,11.33
2023-01-07T14:33:02.686Z,11.28
2023-01-07T14:35:36.337Z,11.22
2023-01-07T14:39:01.793Z,11.12
2023-01-07T14:41:30.243Z,11.06
2023-01-07T14:44:21.705Z,11.01
2023-01-07T14:46:54.650Z,10.96
2023-01-07T14:49:58.275Z,10.91
2023-01-07T14:53:12.337Z,10.75
2023-01-07T14:56:07.888Z,10.86
2023-01-07T14:59:16.556Z,10.82
2023-01-07T15:02:09.631Z,10.77
2023-01-07T15:05:34.793Z,10.59
2023-01-07T15:08:26.797Z,10.68
2023-01-07T15:11:18.429Z,10.65
2023-01-07T15:14:21.770Z,10.61
2023-01-07T15:16:54.524Z,10.57
2023-01-07T15:19:23.194Z,10.54
2023-01-07T15:22:08.985Z,10.51
2023-01-07T15:24:48.996Z,10.46
2023-01-07T15:27:29.811Z,10.42
2023-01-07T15:30:10.500Z,10.39
2023-01-07T15:32:50.849Z,10.35
2023-01-07T15:35:22.698Z,10.16
2023-01-07T15:37:53.374Z,10.22
2023-01-07T15:40:26.611Z,10.12
2023-01-07T15:43:00.360Z,9.84
2023-01-07T15:45:29.935Z,9.80
2023-01-07T15:48:13.747Z,9.60
2023-01-07T15:50:47.097Z,9.41
2023-01-07T15:53:27.577Z,9.24
2023-01-07T15:56:03.548Z,9.09
2023-01-07T15:58:39.897Z,8.99
2023-01-07T16:01:16.229Z,9.00
2023-01-07T16:03:45.607Z,8.95
2023-01-07T16:06:38.599Z,8.82
2023-01-07T16:09:20.093Z,8.70
2023-01-07T16:11:48.844Z,8.61
2023-01-07T16:14:20.513Z,8.50
2023-01-07T16:16:49.185Z,8.42
2023-01-07T16:19:20.563Z,8.14
2023-01-07T16:21:55.818Z,8.09
2023-01-07T16:24:26.959Z,8.22
2023-01-07T16:27:04.795Z,8.19
2023-01-07T16:29:39.389Z,8.13
2023-01-07T16:32:09.968Z,8.10
2023-01-07T16:35:06.330Z,8.06
2023-01-07T16:37:40.625Z,7.96
2023-01-07T16:40:23.236Z,7.88
2023-01-07T16:42:52.533Z,7.84
2023-01-07T16:45:28.786Z,7.78
2023-01-07T16:48:09.365Z,7.72
2023-01-07T16:50:41.275Z,7.67
2023-01-07T16:53:29.348Z,7.63
2023-01-07T16:56:19.534Z,7.59
2023-01-07T16:58:55.511Z,7.54
2023-01-07T17:01:35.735Z,7.55
2023-01-07T17:04:14.953Z,7.52
2023-01-07T17:06:45.135Z,7.48
2023-01-07T17:09:25.325Z,7.47
2023-01-07T17:11:56.745Z,7.46
2023-01-07T17:14:50.987Z,7.44
2023-01-07T17:17:32.603Z,7.41
2023-01-07T17:20:22.253Z,7.38
2023-01-07T17:22:51.381Z,7.09
2023-01-07T17:25:26.164Z,7.27
2023-01-07T17:28:01.008Z,7.22
2023-01-07T17:30:35.773Z,7.20
2023-01-07T17:33:05.292Z,7.19
2023-01-07T17:35:33.630Z,7.17
2023-01-07T17:38:01.996Z,7.14
2023-01-07T17:40:30.595Z,7.11
2023-01-07T17:43:17.734Z,7.05
2023-01-07T17:45:46.163Z,6.90
2023-01-07T17:48:15.217Z,6.98
2023-01-07T17:50:46.735Z,6.56
2023-01-07T17:53:24.526Z,6.83
2023-01-07T17:55:55.071Z,6.71
2023-01-07T17:58:29.925Z,6.79
2023-01-07T18:01:01.736Z,6.73
2023-01-07T18:03:30.598Z,6.77
2023-01-07T18:05:59.007Z,6.74
2023-01-07T18:08:27.502Z,6.72
2023-01-07T18:11:15.090Z,6.72
2023-01-07T18:13:46.236Z,6.68
2023-01-07T18:16:16.389Z,6.63
2023-01-07T18:18:44.912Z,6.17
2023-01-07T18:21:13.539Z,6.56
2023-01-07T18:23:41.915Z,6.56
2023-01-07T18:26:11.324Z,6.54
2023-01-07T18:28:39.787Z,6.48
2023-01-07T18:31:11.320Z,6.21
2023-01-07T18:33:39.868Z,6.30
2023-01-07T18:36:09.064Z,6.27
2023-01-07T18:38:37.544Z,6.15
2023-01-07T18:41:07.148Z,6.18
2023-01-07T18:43:35.938Z,6.15
2023-01-07T18:46:10.663Z,6.00
2023-01-07T18:48:39.595Z,5.85
2023-01-07T18:51:12.301Z,5.93
2023-01-07T18:53:41.062Z,5.91
2023-01-07T18:56:11.720Z,5.93
2023-01-07T18:58:43.188Z,5.90
2023-01-07T19:01:13.879Z,5.86
2023-01-07T19:03:44.476Z,5.79
2023-01-07T19:06:13.387Z,5.67
2023-01-07T19:08:42.088Z,5.68
2023-01-07T19:11:13.781Z,5.66
2023-01-07T19:13:43.084Z,5.63
2023-01-07T19:16:14.392Z,5.59
2023-01-07T19:18:43.369Z,5.56
2023-01-07T19:21:13.726Z,5.52
2023-01-07T19:23:42.456Z,5.48
2023-01-07T19:26:13.600Z,5.47
2023-01-07T19:28:42.013Z,5.45
2023-01-07T19:31:13.322Z,5.17
2023-01-07T19:33:43.520Z,5.41
2023-01-07T19:36:16.427Z,5.40
2023-01-07T19:38:49.251Z,5.38
2023-01-07T19:41:22.319Z,5.40
2023-01-07T19:43:52.998Z,5.41
2023-01-07T19:46:23.016Z,5.42
2023-01-07T19:48:51.360Z,5.40
2023-01-07T19:51:20.671Z,5.38
2023-01-07T19:53:51.439Z,5.35
2023-01-07T19:56:22.304Z,5.40
2023-01-07T19:58:54.719Z,5.41
2023-01-07T20:01:26.713Z,5.41
2023-01-07T20:04:00.365Z,5.89
2023-01-07T20:06:31.153Z,5.98
2023-01-07T20:09:01.037Z,6.18
2023-01-07T20:11:32.048Z,6.31
2023-01-07T20:14:00.498Z,6.37
2023-01-07T20:16:30.356Z,6.44
2023-01-07T20:19:01.585Z,6.53
2023-01-07T20:21:31.465Z,6.45
2023-01-07T20:24:00.408Z,6.63
2023-01-07T20:26:34.144Z,6.61
2023-01-07T20:29:03.082Z,6.61
2023-01-07T20:31:37.354Z,6.77
2023-01-07T20:34:06.015Z,6.90
2023-01-07T20:36:34.458Z,6.96
2023-01-07T20:39:05.984Z,6.99
2023-01-07T20:41:38.591Z,7.04
2023-01-07T20:44:09.672Z,7.09
2023-01-07T20:46:40.684Z,7.11
2023-01-07T20:49:10.231Z,7.17
2023-01-07T20:51:38.645Z,7.18
2023-01-07T20:54:09.326Z,7.19
2023-01-07T20:56:38.018Z,7.00
2023-01-07T20:59:06.401Z,7.25
2023-01-07T21:01:35.255Z,7.29
2023-01-07T21:04:05.579Z,7.30
2023-01-07T21:06:35.344Z,7.31
2023-01-07T21:09:06.238Z,7.04
2023-01-07T21:11:35.020Z,7.29
2023-01-07T21:14:03.464Z,7.41
2023-01-07T21:16:33.605Z,7.44
2023-01-07T21:19:03.196Z,7.48
2023-01-07T21:21:33.136Z,7.50
2023-01-07T21:24:01.644Z,7.50
2023-01-07T21:26:30.436Z,7.51
2023-01-07T21:29:02.048Z,7.51
2023-01-07T21:31:31.076Z,7.15
2023-01-07T21:34:00.219Z,7.33
2023-01-07T21:36:30.471Z,7.53
2023-01-07T21:39:01.887Z,7.47
2023-01-07T21:41:31.504Z,7.53
2023-01-07T21:44:00.491Z,7.30
2023-01-07T21:46:31.262Z,7.47
2023-01-07T21:49:01.243Z,7.44
2023-01-07T21:51:30.971Z,7.40
2023-01-07T21:54:01.501Z,7.38
2023-01-07T21:56:33.016Z,7.33
2023-01-07T21:59:03.535Z,7.18
2023-01-07T22:01:32.751Z,6.71
2023-01-07T22:04:02.263Z,6.82
2023-01-07T22:06:33.829Z,6.63
2023-01-07T22:09:07.474Z,6.13
2023-01-07T22:11:38.819Z,6.31
2023-01-07T22:14:07.478Z,6.16
2023-01-07T22:16:36.525Z,6.12
2023-01-07T22:19:05.638Z,6.05
2023-01-07T22:21:34.435Z,6.00
2023-01-07T22:24:07.791Z,6.02
2023-01-07T22:26:37.137Z,6.11
2023-01-07T22:29:09.098Z,6.10
2023-01-07T22:31:38.702Z,6.43
2023-01-07T22:34:08.670Z,6.56
2023-01-07T22:36:45.569Z,6.67
2023-01-07T22:39:22.646Z,6.74
2023-01-07T22:41:59.238Z,6.80
2023-01-07T22:44:34.923Z,6.86
2023-01-07T22:47:08.340Z,6.91
2023-01-07T22:49:37.169Z,6.61
2023-01-07T22:52:06.751Z,6.96
2023-01-07T22:54:37.302Z,6.91
2023-01-07T22:57:09.579Z,6.99
2023-01-07T22:59:38.836Z,7.01
2023-01-07T23:02:07.242Z,7.04
2023-01-07T23:04:35.714Z,7.07
2023-01-07T23:07:04.149Z,7.07
2023-01-07T23:09:32.696Z,7.07
2023-01-07T23:12:03.813Z,6.98
2023-01-07T23:14:32.543Z,6.79
2023-01-07T23:17:00.897Z,6.62
2023-01-07T23:19:31.367Z,6.38
2023-01-07T23:22:00.555Z,6.28
2023-01-07T23:24:30.421Z,6.10
2023-01-07T23:26:58.851Z,5.96
2023-01-07T23:29:28.662Z,5.59
2023-01-07T23:31:57.370Z,5.79
2023-01-07T23:34:25.787Z,5.57
2023-01-07T23:36:54.156Z,5.72
2023-01-07T23:39:22.562Z,5.66
2023-01-07T23:41:51.027Z,5.58
2023-01-07T23:44:19.440Z,5.49
2023-01-07T23:46:49.655Z,5.46
2023-01-07T23:49:18.093Z,5.56
2023-01-07T23:51:46.582Z,5.76
2023-01-07T23:54:19.084Z,5.91
2023-01-07T23:56:48.666Z,6.13
2023-01-07T23:59:17.919Z,6.27
